createdAt,value
2022-12-07T00:01:28.989Z,99390.19
2022-12-07T00:04:01.864Z,99389.34
2022-12-07T00:06:28.775Z,99380.09
2022-12-07T00:08:55.967Z,99362.91
2022-12-07T00:11:24.118Z,99385.53
2022-12-07T00:13:56.843Z,99381.13
2022-12-07T00:16:27.378Z,99385.19
2022-12-07T00:18:54.870Z,99398.25
2022-12-07T00:21:25.254Z,99399.63
2022-12-07T00:23:53.318Z,99397.22
2022-12-07T00:26:26.634Z,99406.19
2022-12-07T00:28:56.430Z,99411.38
2022-12-07T00:31:26.834Z,99406.19
2022-12-07T00:33:54.101Z,99403.47
2022-12-07T00:36:27.020Z,99404.00
2022-12-07T00:38:55.525Z,99405.94
2022-12-07T00:41:25.297Z,99423.91
2022-12-07T00:43:53.403Z,99415.75
2022-12-07T00:46:21.320Z,99416.56
2022-12-07T00:48:49.873Z,99414.94
2022-12-07T00:51:19.297Z,99406.47
2022-12-07T00:53:46.589Z,99420.09
2022-12-07T00:56:18.834Z,99393.16
2022-12-07T00:58:51.623Z,99401.88
2022-12-07T01:01:18.725Z,99423.63
2022-12-07T01:03:45.898Z,99431.28
2022-12-07T01:06:17.210Z,99421.19
2022-12-07T01:08:44.297Z,99429.63
2022-12-07T01:11:15.664Z,99424.19
2022-12-07T01:13:43.555Z,99421.72
2022-12-07T01:16:14.247Z,99418.47
2022-12-07T01:18:42.365Z,99426.38
2022-12-07T01:21:16.009Z,99356.16
2022-12-07T01:23:43.187Z,99421.19
2022-12-07T01:26:15.745Z,99411.09
2022-12-07T01:28:42.778Z,99394.22
2022-12-07T01:31:16.381Z,99403.47
2022-12-07T01:33:48.724Z,99392.00
2022-12-07T01:36:17.782Z,99383.31
2022-12-07T01:38:46.335Z,99390.38
2022-12-07T01:41:16.771Z,99388.25
2022-12-07T01:44:27.051Z,99391.47
2022-12-07T01:47:00.547Z,99382.81
2022-12-07T01:49:40.059Z,99391.56
2022-12-07T01:52:16.033Z,99391.31
2022-12-07T01:54:45.860Z,99383.41
2022-12-07T01:57:15.928Z,99382.84
2022-12-07T01:59:44.671Z,99383.94
2022-12-07T02:02:18.990Z,99381.22
2022-12-07T02:04:47.155Z,99388.84
2022-12-07T02:07:16.134Z,99387.75
2022-12-07T02:09:43.303Z,99388.84
2022-12-07T02:12:10.722Z,99390.19
2022-12-07T02:14:38.176Z,99385.25
2022-12-07T02:17:43.192Z,99387.72
2022-12-07T02:20:29.070Z,99351.25
2022-12-07T02:23:22.312Z,99384.41
2022-12-07T02:25:52.153Z,99381.94
2022-12-07T02:28:46.927Z,99371.84
2022-12-07T02:31:20.456Z,99342.47
2022-12-07T02:34:07.644Z,99378.66
2022-12-07T02:36:43.675Z,99379.19
2022-12-07T02:39:29.834Z,99367.47
2022-12-07T02:42:02.327Z,99370.47
2022-12-07T02:44:31.966Z,99371.53
2022-12-07T02:47:04.321Z,99381.63
2022-12-07T02:49:32.863Z,99377.78
2022-12-07T02:52:00.148Z,99373.94
2022-12-07T02:54:27.052Z,99371.78
2022-12-07T02:56:57.136Z,99373.94
2022-12-07T02:59:55.089Z,99363.84
2022-12-07T03:02:52.688Z,99378.28
2022-12-07T03:05:31.715Z,99362.41
2022-12-07T03:08:36.743Z,99360.78
2022-12-07T03:11:11.062Z,99359.41
2022-12-07T03:13:54.809Z,99355.63
2022-12-07T03:16:33.095Z,99354.78
2022-12-07T03:19:07.229Z,99350.41
2022-12-07T03:21:40.101Z,99355.31
2022-12-07T03:24:12.416Z,99350.69
2022-12-07T03:26:46.094Z,99356.16
2022-12-07T03:29:21.730Z,99356.16
2022-12-07T03:31:58.352Z,99337.13
2022-12-07T03:34:38.040Z,99353.97
2022-12-07T03:37:13.521Z,99331.41
2022-12-07T03:39:46.247Z,99356.66
2022-12-07T03:42:13.798Z,99347.16
2022-12-07T03:44:42.298Z,99344.44
2022-12-07T03:47:18.469Z,99347.16
2022-12-07T03:49:52.552Z,99333.00
2022-12-07T03:52:34.600Z,99348.00
2022-12-07T03:55:25.992Z,99351.56
2022-12-07T03:57:57.234Z,99348.84
2022-12-07T04:00:24.198Z,99352.13
2022-12-07T04:02:54.221Z,99355.94
2022-12-07T04:05:21.831Z,99342.56
2022-12-07T04:07:49.051Z,99330.88
2022-12-07T04:10:16.249Z,99333.56
2022-12-07T04:12:43.093Z,99337.91
2022-12-07T04:15:11.340Z,99330.53
2022-12-07T04:17:39.542Z,99336.28
2022-12-07T04:20:07.669Z,99343.88
2022-12-07T04:22:34.666Z,99336.75
2022-12-07T04:25:01.922Z,99325.03
2022-12-07T04:27:28.713Z,99317.66
2022-12-07T04:29:56.658Z,99314.13
2022-12-07T04:32:25.030Z,99327.44
2022-12-07T04:34:55.555Z,99317.94
2022-12-07T04:37:23.619Z,99310.59
2022-12-07T04:39:50.654Z,99328.53
2022-12-07T04:42:17.733Z,99313.84
2022-12-07T04:44:45.791Z,99308.38
2022-12-07T04:47:13.095Z,99320.34
2022-12-07T04:49:40.399Z,99314.63
2022-12-07T04:52:07.340Z,99329.38
2022-12-07T04:54:34.686Z,99342.72
2022-12-07T04:57:01.715Z,99322.53
2022-12-07T04:59:28.786Z,99335.59
2022-12-07T05:01:55.812Z,99329.94
2022-12-07T05:04:22.992Z,99338.34
2022-12-07T05:06:50.129Z,99338.88
2022-12-07T05:09:17.040Z,99341.63
2022-12-07T05:11:44.426Z,99332.09
2022-12-07T05:14:11.491Z,99348.16
2022-12-07T05:16:39.392Z,99339.16
2022-12-07T05:19:06.622Z,99332.34
2022-12-07T05:21:34.052Z,99328.22
2022-12-07T05:24:01.176Z,99327.91
2022-12-07T05:26:29.098Z,99317.28
2022-12-07T05:28:57.362Z,99328.44
2022-12-07T05:31:25.541Z,99322.19
2022-12-07T05:33:52.953Z,99337.19
2022-12-07T05:36:32.303Z,99329.53
2022-12-07T05:39:01.957Z,99333.06
2022-12-07T05:41:47.969Z,99321.31
2022-12-07T05:44:15.447Z,99338.53
2022-12-07T05:46:43.338Z,99334.44
2022-12-07T05:49:10.277Z,99325.16
2022-12-07T05:51:37.679Z,99342.84
2022-12-07T05:54:04.801Z,99344.22
2022-12-07T05:56:34.897Z,99342.59
2022-12-07T05:59:20.986Z,99338.78
2022-12-07T06:01:48.443Z,99348.59
2022-12-07T06:04:16.134Z,99352.38
2022-12-07T06:06:43.343Z,99354.00
2022-12-07T06:09:17.489Z,99352.06
2022-12-07T06:12:03.537Z,99347.22
2022-12-07T06:14:36.533Z,99360.81
2022-12-07T06:17:03.803Z,99362.41
2022-12-07T06:19:31.146Z,99365.09
2022-12-07T06:21:59.130Z,99371.63
2022-12-07T06:24:26.351Z,99356.34
2022-12-07T06:26:53.520Z,99361.56
2022-12-07T06:29:20.545Z,99349.00
2022-12-07T06:31:51.848Z,99354.94
2022-12-07T06:34:28.562Z,99354.94
2022-12-07T06:36:56.200Z,99363.91
2022-12-07T06:39:26.877Z,99359.81
2022-12-07T06:41:55.109Z,99366.41
2022-12-07T06:44:23.227Z,99337.25
2022-12-07T06:46:51.405Z,99362.53
2022-12-07T06:49:21.164Z,99353.72
2022-12-07T06:51:55.647Z,99348.25
2022-12-07T06:54:23.111Z,99356.94
2022-12-07T06:56:51.073Z,99357.38
2022-12-07T06:59:18.775Z,99354.13
2022-12-07T07:01:45.801Z,99351.41
2022-12-07T07:04:13.889Z,99341.00
2022-12-07T07:06:41.002Z,99336.28
2022-12-07T07:09:08.261Z,99349.34
2022-12-07T07:11:35.552Z,99332.84
2022-12-07T07:14:03.733Z,99340.41
2022-12-07T07:16:33.513Z,99343.91
2022-12-07T07:19:00.942Z,99329.47
2022-12-07T07:21:28.289Z,99338.56
2022-12-07T07:23:55.278Z,99348.13
2022-12-07T07:26:23.451Z,99354.06
2022-12-07T07:28:50.963Z,99356.69
2022-12-07T07:31:18.245Z,99344.63
2022-12-07T07:33:49.622Z,99347.31
2022-12-07T07:36:17.059Z,99352.91
2022-12-07T07:38:44.710Z,99346.25
2022-12-07T07:41:11.683Z,99351.72
2022-12-07T07:44:02.453Z,99366.53
2022-12-07T07:46:29.893Z,99351.38
2022-12-07T07:48:57.450Z,99358.66
2022-12-07T07:51:24.467Z,99356.38
2022-12-07T07:53:51.747Z,99355.53
2022-12-07T07:56:21.321Z,99350.34
2022-12-07T07:58:48.418Z,99351.66
2022-12-07T08:01:21.255Z,99359.38
2022-12-07T08:08:26.779Z,99334.38
2022-12-07T08:10:54.381Z,99360.94
2022-12-07T08:13:24.920Z,99358.13
2022-12-07T08:15:57.013Z,99354.28
2022-12-07T08:18:24.377Z,99360.22
2022-12-07T08:20:51.722Z,99358.72
2022-12-07T08:23:21.481Z,99351.06
2022-12-07T08:25:51.673Z,99364.59
2022-12-07T08:28:19.280Z,99370.47
2022-12-07T08:30:49.995Z,99362.97
2022-12-07T08:33:17.435Z,99359.19
2022-12-07T08:35:48.233Z,99360.13
2022-12-07T08:38:15.768Z,99352.00
2022-12-07T08:40:44.412Z,99337.28
2022-12-07T08:43:11.977Z,99352.19
2022-12-07T08:45:41.756Z,99358.94
2022-12-07T08:48:12.793Z,99349.03
2022-12-07T08:50:45.976Z,99347.81
2022-12-07T08:53:17.131Z,99322.81
2022-12-07T08:55:47.414Z,99347.84
2022-12-07T08:58:16.089Z,99343.34
2022-12-07T09:00:43.399Z,99342.75
2022-12-07T09:03:16.653Z,99341.53
2022-12-07T09:05:43.688Z,99336.47
2022-12-07T09:08:11.262Z,99338.91
2022-12-07T09:10:38.831Z,99328.94
2022-12-07T09:13:06.012Z,99319.06
2022-12-07T09:15:36.118Z,99324.88
2022-12-07T09:18:06.163Z,99324.03
2022-12-07T09:20:33.542Z,99328.50
2022-12-07T09:23:04.791Z,99326.00
2022-12-07T09:25:32.272Z,99314.28
2022-12-07T09:27:59.967Z,99321.50
2022-12-07T09:30:28.909Z,99312.97
2022-12-07T09:32:58.193Z,99292.91
2022-12-07T09:35:27.011Z,99308.75
2022-12-07T09:37:55.568Z,99292.63
2022-12-07T09:40:25.191Z,99296.94
2022-12-07T09:42:56.447Z,99285.00
2022-12-07T09:45:30.806Z,99284.09
2022-12-07T09:48:00.726Z,99293.31
2022-12-07T09:50:29.741Z,99291.56
2022-12-07T09:53:14.039Z,99287.19
2022-12-07T09:55:43.093Z,99283.31
2022-12-07T09:58:21.786Z,99256.09
2022-12-07T10:00:55.440Z,99269.84
2022-12-07T10:03:23.191Z,99255.72
2022-12-07T10:05:52.601Z,99269.41
2022-12-07T10:08:20.692Z,99257.16
2022-12-07T10:10:52.915Z,99263.59
2022-12-07T10:13:46.414Z,99257.16
2022-12-07T10:16:27.848Z,99252.19
2022-12-07T10:18:55.531Z,99240.66
2022-12-07T10:21:25.638Z,99246.50
2022-12-07T10:24:19.249Z,99237.47
2022-12-07T10:26:51.027Z,99233.47
2022-12-07T10:29:39.819Z,99235.91
2022-12-07T10:32:32.675Z,99220.78
2022-12-07T10:35:26.271Z,99225.84
2022-12-07T10:37:55.888Z,99225.66
2022-12-07T10:40:35.306Z,99226.34
2022-12-07T10:43:20.286Z,99232.16
2022-12-07T10:46:14.485Z,99221.84
2022-12-07T10:49:01.023Z,99228.00
2022-12-07T10:51:46.682Z,99182.44
2022-12-07T10:54:30.773Z,99214.78
2022-12-07T10:57:30.147Z,99209.16
2022-12-07T11:00:10.249Z,99209.81
2022-12-07T11:02:50.711Z,99206.91
2022-12-07T11:05:37.361Z,99204.31
2022-12-07T11:08:23.652Z,99201.91
2022-12-07T11:11:01.899Z,99189.28
2022-12-07T11:13:36.169Z,99189.78
2022-12-07T11:16:29.110Z,99117.13
2022-12-07T11:19:03.091Z,99190.56
2022-12-07T11:21:49.507Z,99193.97
2022-12-07T11:24:26.434Z,99181.69
2022-12-07T11:26:53.850Z,99183.75
2022-12-07T11:29:55.626Z,99182.47
2022-12-07T11:32:48.485Z,99170.16
2022-12-07T11:35:31.343Z,99169.03
2022-12-07T11:38:24.644Z,99159.47
2022-12-07T11:41:14.699Z,99141.63
2022-12-07T11:43:54.289Z,99142.75
2022-12-07T11:46:25.622Z,99150.06
2022-12-07T11:49:33.824Z,99135.66
2022-12-07T11:52:05.842Z,99141.19
2022-12-07T11:54:43.054Z,99135.50
2022-12-07T11:57:20.352Z,99126.09
2022-12-07T11:59:53.372Z,99131.94
2022-12-07T12:02:28.508Z,99123.34
2022-12-07T12:05:05.417Z,99116.19
2022-12-07T12:10:29.620Z,99114.56
2022-12-07T12:16:28.072Z,99120.50
2022-12-07T12:19:23.256Z,99111.75
2022-12-07T12:21:58.680Z,99117.56
2022-12-07T12:24:30.490Z,99112.97
2022-12-07T12:27:06.499Z,99117.75
2022-12-07T12:29:43.193Z,99116.13
2022-12-07T12:32:22.183Z,99099.03
2022-12-07T12:34:50.952Z,99119.72
2022-12-07T12:37:36.989Z,99113.59
2022-12-07T12:40:16.632Z,99108.53
2022-12-07T12:42:57.545Z,99111.06
2022-12-07T12:45:28.687Z,99092.84
2022-12-07T12:48:06.559Z,99103.91
2022-12-07T12:50:36.806Z,99100.34
2022-12-07T12:53:25.766Z,99095.94
2022-12-07T12:56:07.908Z,99095.31
2022-12-07T12:58:45.134Z,99087.97
2022-12-07T13:01:31.475Z,99098.66
2022-12-07T13:04:00.253Z,99088.03
2022-12-07T13:06:27.578Z,99095.22
2022-12-07T13:09:00.089Z,99092.72
2022-12-07T13:11:42.797Z,99095.56
2022-12-07T13:14:42.049Z,99089.00
2022-12-07T13:17:52.483Z,99091.84
2022-12-07T13:20:44.638Z,99082.06
2022-12-07T13:23:11.567Z,99080.34
2022-12-07T13:25:47.334Z,99093.19
2022-12-07T13:28:21.455Z,99095.16
2022-12-07T13:31:01.641Z,99101.03
2022-12-07T13:33:31.740Z,99089.44
2022-12-07T13:36:01.840Z,99098.16
2022-12-07T13:38:33.552Z,99089.59
2022-12-07T13:41:14.057Z,99092.53
2022-12-07T13:43:55.454Z,99100.00
2022-12-07T13:46:44.500Z,99089.78
2022-12-07T13:49:27.049Z,99094.00
2022-12-07T13:51:55.858Z,99093.69
2022-12-07T13:54:26.729Z,99086.91
2022-12-07T13:56:54.714Z,99087.06
2022-12-07T13:59:29.739Z,99091.75
2022-12-07T14:01:59.506Z,99086.91
2022-12-07T14:04:37.212Z,99084.63
2022-12-07T14:07:27.507Z,99085.72
2022-12-07T14:10:06.895Z,99081.66
2022-12-07T14:15:34.081Z,99074.84
2022-12-07T14:18:05.007Z,99076.88
2022-12-07T14:20:42.142Z,99081.53
2022-12-07T14:23:30.318Z,99086.34
2022-12-07T14:26:08.642Z,99081.81
2022-12-07T14:28:38.400Z,99064.59
2022-12-07T14:31:22.686Z,99048.69
2022-12-07T14:33:52.784Z,99073.75
2022-12-07T14:36:26.670Z,99069.84
2022-12-07T14:38:57.369Z,99069.50
2022-12-07T14:41:47.446Z,99044.66
2022-12-07T14:44:24.324Z,99063.56
2022-12-07T14:49:40.520Z,99063.16
2022-12-07T14:55:03.226Z,99063.50
2022-12-07T14:57:30.601Z,99064.25
2022-12-07T14:59:57.874Z,99064.06
2022-12-07T15:02:25.209Z,99069.16
2022-12-07T15:04:52.490Z,99066.06
2022-12-07T15:07:22.103Z,99068.63
2022-12-07T15:09:50.205Z,99070.06
2022-12-07T15:12:17.419Z,99070.97
2022-12-07T15:14:44.491Z,99066.72
2022-12-07T15:17:23.398Z,99072.03
2022-12-07T15:19:55.753Z,99066.88
2022-12-07T15:22:22.772Z,99082.69
2022-12-07T15:24:50.049Z,99071.34
2022-12-07T15:27:17.263Z,99069.72
2022-12-07T15:29:45.420Z,99071.13
2022-12-07T15:32:13.093Z,99079.66
2022-12-07T15:34:40.962Z,99066.44
2022-12-07T15:37:09.061Z,99060.88
2022-12-07T15:39:38.311Z,99071.84
2022-12-07T15:42:08.310Z,99066.50
2022-12-07T15:44:54.038Z,99074.72
2022-12-07T15:47:21.736Z,99074.00
2022-12-07T15:49:48.806Z,99078.88
2022-12-07T15:52:19.460Z,99078.06
2022-12-07T15:54:46.532Z,99083.53
2022-12-07T15:57:19.510Z,99081.09
2022-12-07T15:59:49.220Z,99055.00
2022-12-07T16:02:16.677Z,99060.88
2022-12-07T16:04:44.026Z,99056.63
2022-12-07T16:07:12.845Z,99077.63
2022-12-07T16:09:43.012Z,99071.13
2022-12-07T16:12:11.234Z,99073.56
2022-12-07T16:14:39.554Z,99065.13
2022-12-07T16:17:07.581Z,99068.91
2022-12-07T16:19:35.427Z,99052.03
2022-12-07T16:22:02.937Z,99078.34
2022-12-07T16:24:29.954Z,99084.31
2022-12-07T16:26:57.390Z,99083.50
2022-12-07T16:29:43.485Z,99072.66
2022-12-07T16:32:11.230Z,99076.19
2022-12-07T16:34:38.357Z,99079.25
2022-12-07T16:37:06.174Z,99072.97
2022-12-07T16:39:35.512Z,99080.78
2022-12-07T16:42:06.887Z,99068.09
2022-12-07T16:44:34.237Z,99063.81
2022-12-07T16:47:02.302Z,99074.59
2022-12-07T16:49:30.199Z,99057.94
2022-12-07T16:54:44.474Z,99082.72
2022-12-07T16:57:14.273Z,99082.00
2022-12-07T16:59:46.946Z,99088.09
2022-12-07T17:02:14.103Z,99086.38
2022-12-07T17:04:43.468Z,99099.69
2022-12-07T17:07:11.275Z,99096.94
2022-12-07T17:09:38.579Z,99095.41
2022-12-07T17:12:17.345Z,99107.06
2022-12-07T17:15:04.648Z,99097.72
2022-12-07T17:17:32.654Z,99106.66
2022-12-07T17:20:03.623Z,99108.50
2022-12-07T17:22:31.542Z,99088.91
2022-12-07T17:25:04.397Z,99081.59
2022-12-07T17:27:34.472Z,99102.00
2022-12-07T17:30:02.506Z,99096.09
2022-12-07T17:32:29.653Z,99082.28
2022-12-07T17:34:57.560Z,99103.72
2022-12-07T17:37:28.088Z,99097.13
2022-12-07T17:39:58.511Z,99100.38
2022-12-07T17:42:40.101Z,99097.13
2022-12-07T17:45:11.009Z,99083.72
2022-12-07T17:47:41.115Z,99094.88
2022-12-07T17:50:09.420Z,99090.22
2022-12-07T17:53:01.926Z,99078.63
2022-12-07T17:58:38.056Z,99093.25
2022-12-07T18:01:11.109Z,99106.94
2022-12-07T18:03:45.153Z,99082.34
2022-12-07T18:06:12.673Z,99106.31
2022-12-07T18:08:40.136Z,99105.28
2022-12-07T18:11:07.798Z,99098.06
2022-12-07T18:13:38.679Z,99094.00
2022-12-07T18:16:18.905Z,99068.03
2022-12-07T18:19:00.248Z,99100.47
2022-12-07T18:21:29.139Z,99095.81
2022-12-07T18:23:59.257Z,99095.81
2022-12-07T18:26:27.412Z,99095.59
2022-12-07T18:28:54.892Z,99088.88
2022-12-07T18:31:22.053Z,99092.91
2022-12-07T18:33:49.422Z,99096.22
2022-12-07T18:36:18.453Z,99095.78
2022-12-07T18:38:48.720Z,99104.44
2022-12-07T18:41:16.722Z,99092.78
2022-12-07T18:43:44.784Z,99095.22
2022-12-07T18:46:16.159Z,99090.56
2022-12-07T18:48:44.016Z,99095.56
2022-12-07T18:51:13.008Z,99093.50
2022-12-07T18:53:43.363Z,99099.16
2022-12-07T18:56:15.431Z,99112.72
2022-12-07T18:59:04.070Z,99109.97
2022-12-07T19:01:35.055Z,99112.72
2022-12-07T19:04:02.323Z,99113.69
2022-12-07T19:06:29.388Z,99102.09
2022-12-07T19:08:57.326Z,99106.28
2022-12-07T19:11:46.189Z,99114.19
2022-12-07T19:14:14.620Z,99119.13
2022-12-07T19:16:43.933Z,99116.97
2022-12-07T19:19:13.408Z,99112.91
2022-12-07T19:21:40.955Z,99131.75
2022-12-07T19:24:08.795Z,99133.66
2022-12-07T19:26:36.020Z,99132.56
2022-12-07T19:29:03.153Z,99138.25
2022-12-07T19:31:30.391Z,99131.63
2022-12-07T19:33:57.548Z,99111.22
2022-12-07T19:36:24.706Z,99122.56
2022-12-07T19:38:53.499Z,99122.84
2022-12-07T19:41:38.067Z,99118.47
2022-12-07T19:44:16.969Z,99029.53
2022-12-07T19:46:47.327Z,99109.31
2022-12-07T19:49:17.981Z,99113.66
2022-12-07T19:51:47.373Z,99107.75
2022-12-07T19:54:16.857Z,99113.97
2022-12-07T19:56:45.811Z,99115.34
2022-12-07T19:59:15.145Z,99120.66
2022-12-07T20:01:43.458Z,99122.09
2022-12-07T20:04:14.092Z,99132.41
2022-12-07T20:06:41.439Z,99125.00
2022-12-07T20:09:08.946Z,99127.44
2022-12-07T20:11:55.559Z,99122.09
2022-12-07T20:14:23.277Z,99132.56
2022-12-07T20:16:50.667Z,99138.03
2022-12-07T20:19:18.388Z,99131.06
2022-12-07T20:21:46.352Z,99141.50
2022-12-07T20:24:21.830Z,99147.53
2022-12-07T20:26:50.885Z,99158.47
2022-12-07T20:29:21.090Z,99139.16
2022-12-07T20:31:50.302Z,99148.16
2022-12-07T20:34:18.127Z,99157.19
2022-12-07T20:36:45.327Z,99159.97
2022-12-07T20:39:12.512Z,99155.88
2022-12-07T20:41:58.644Z,99156.75
2022-12-07T20:44:26.177Z,99170.44
2022-12-07T20:47:06.035Z,99167.22
2022-12-07T20:49:33.327Z,99169.13
2022-12-07T20:52:01.007Z,99162.09
2022-12-07T20:54:28.457Z,99159.97
2022-12-07T20:56:55.356Z,99156.72
2022-12-07T20:59:22.703Z,99152.41
2022-12-07T21:01:49.641Z,99162.75
2022-12-07T21:04:18.431Z,99160.00
2022-12-07T21:06:45.776Z,99168.69
2022-12-07T21:09:13.191Z,99170.91
2022-12-07T21:11:53.237Z,99158.59
2022-12-07T21:14:21.244Z,99156.59
2022-12-07T21:16:48.464Z,99146.50
2022-12-07T21:19:19.579Z,99147.84
2022-12-07T21:21:46.841Z,99146.78
2022-12-07T21:24:14.238Z,99135.09
2022-12-07T21:26:51.965Z,99150.28
2022-12-07T21:29:29.757Z,99147.25
2022-12-07T21:32:07.112Z,99136.44
2022-12-07T21:34:34.345Z,99127.19
2022-12-07T21:37:02.261Z,99139.13
2022-12-07T21:39:29.420Z,99134.53
2022-12-07T21:41:57.193Z,99150.94
2022-12-07T21:44:50.206Z,99151.03
2022-12-07T21:47:38.551Z,99164.44
2022-12-07T21:50:32.233Z,99157.44
2022-12-07T21:52:59.498Z,99155.63
2022-12-07T21:55:26.511Z,99171.47
2022-12-07T21:57:53.648Z,99170.41
2022-12-07T22:00:24.875Z,99157.88
2022-12-07T22:02:52.700Z,99171.56
2022-12-07T22:05:27.523Z,99158.59
2022-12-07T22:07:59.419Z,99170.84
2022-12-07T22:10:29.511Z,99160.00
2022-12-07T22:13:06.293Z,99158.66
2022-12-07T22:15:33.357Z,99164.38
2022-12-07T22:18:00.445Z,99175.81
2022-12-07T22:20:27.460Z,99190.00
2022-12-07T22:22:55.368Z,99195.44
2022-12-07T22:25:22.397Z,99180.75
2022-12-07T22:27:49.434Z,99192.19
2022-12-07T22:30:17.992Z,99203.88
2022-12-07T22:32:49.261Z,99194.63
2022-12-07T22:35:19.527Z,99186.47
2022-12-07T22:37:46.514Z,99198.47
2022-12-07T22:40:20.653Z,99197.13
2022-12-07T22:42:51.064Z,99194.94
2022-12-07T22:45:18.258Z,99196.00
2022-12-07T22:47:45.346Z,99198.16
2022-12-07T22:50:15.960Z,99193.53
2022-12-07T22:52:43.180Z,99210.41
2022-12-07T22:55:11.942Z,99200.31
2022-12-07T22:58:04.366Z,99201.94
2022-12-07T23:00:31.805Z,99186.72
2022-12-07T23:02:58.792Z,99195.13
2022-12-07T23:05:26.512Z,99201.09
2022-12-07T23:07:53.770Z,99203.00
2022-12-07T23:10:47.324Z,99195.84
2022-12-07T23:13:39.990Z,99205.66
2022-12-07T23:16:36.449Z,99195.03
2022-12-07T23:19:03.938Z,99191.47
2022-12-07T23:21:33.220Z,99181.94
2022-12-07T23:24:04.702Z,99205.56
2022-12-07T23:26:31.861Z,99197.91
2022-12-07T23:28:59.388Z,99213.19
2022-12-07T23:31:26.798Z,99198.47
2022-12-07T23:33:54.027Z,99205.84
2022-12-07T23:36:23.988Z,99229.50
2022-12-07T23:38:52.376Z,99233.00
2022-12-07T23:41:24.544Z,99241.97
2022-12-07T23:44:21.502Z,99261.59
2022-12-07T23:47:00.644Z,99279.31
2022-12-07T23:49:28.792Z,99266.81
2022-12-07T23:51:55.802Z,99256.16
2022-12-07T23:54:22.881Z,99249.63
2022-12-07T23:56:49.962Z,99265.66
2022-12-07T23:59:17.122Z,99260.97
